createdAt,value
2022-12-07T00:00:52.196Z,3.87
2022-12-07T00:01:52.124Z,3.90
2022-12-07T00:02:52.068Z,3.86
2022-12-07T00:03:51.998Z,3.83
2022-12-07T00:04:51.857Z,3.92
2022-12-07T00:05:51.766Z,3.93
2022-12-07T00:06:51.692Z,3.83
2022-12-07T00:07:51.666Z,3.90
2022-12-07T00:08:51.519Z,3.93
2022-12-07T00:09:51.425Z,3.93
2022-12-07T00:10:51.341Z,3.89
2022-12-07T00:11:51.262Z,3.93
2022-12-07T00:12:51.180Z,3.92
2022-12-07T00:13:51.084Z,3.90
2022-12-07T00:14:51.008Z,3.98
2022-12-07T00:15:50.918Z,3.89
2022-12-07T00:16:50.854Z,3.87
2022-12-07T00:17:50.747Z,3.98
2022-12-07T00:18:50.665Z,3.86
2022-12-07T00:19:50.575Z,3.87
2022-12-07T00:20:50.494Z,3.90
2022-12-07T00:21:50.413Z,3.86
2022-12-07T00:22:50.324Z,3.97
2022-12-07T00:23:50.238Z,3.97
2022-12-07T00:24:50.153Z,3.87
2022-12-07T00:25:50.072Z,3.92
2022-12-07T00:26:49.991Z,3.86
2022-12-07T00:27:49.896Z,4.02
2022-12-07T00:28:49.815Z,3.97
2022-12-07T00:29:49.732Z,3.97
2022-12-07T00:30:49.645Z,3.93
2022-12-07T00:31:49.654Z,3.93
2022-12-07T00:32:49.472Z,3.94
2022-12-07T00:33:49.385Z,3.87
2022-12-07T00:34:49.306Z,3.92
2022-12-07T00:35:49.216Z,3.93
2022-12-07T00:36:49.136Z,3.87
2022-12-07T00:37:49.050Z,3.87
2022-12-07T00:38:48.963Z,3.87
2022-12-07T00:39:48.878Z,3.87
2022-12-07T00:40:48.796Z,3.97
2022-12-07T00:41:48.711Z,3.93
2022-12-07T00:42:48.631Z,3.94
2022-12-07T00:43:48.532Z,3.86
2022-12-07T00:44:48.463Z,3.94
2022-12-07T00:45:48.447Z,3.86
2022-12-07T00:46:48.281Z,3.84
2022-12-07T00:47:48.198Z,3.84
2022-12-07T00:48:48.126Z,3.89
2022-12-07T00:49:48.030Z,3.84
2022-12-07T00:50:47.942Z,3.89
2022-12-07T00:51:47.855Z,3.84
2022-12-07T00:52:47.775Z,3.87
2022-12-07T00:53:47.691Z,3.82
2022-12-07T00:54:47.607Z,3.86
2022-12-07T00:55:47.519Z,3.82
2022-12-07T00:56:47.431Z,3.84
2022-12-07T00:57:47.348Z,3.83
2022-12-07T00:58:47.264Z,3.86
2022-12-07T00:59:47.177Z,3.84
2022-12-07T01:00:47.095Z,3.84
2022-12-07T01:01:47.104Z,3.87
2022-12-07T01:02:47.002Z,3.92
2022-12-07T01:03:46.896Z,3.93
2022-12-07T01:04:46.750Z,3.93
2022-12-07T01:05:46.665Z,3.86
2022-12-07T01:06:46.586Z,3.93
2022-12-07T01:07:46.510Z,3.84
2022-12-07T01:08:46.434Z,3.90
2022-12-07T01:09:46.323Z,3.87
2022-12-07T01:10:46.241Z,3.89
2022-12-07T01:11:46.156Z,3.93
2022-12-07T01:12:46.074Z,3.90
2022-12-07T01:13:45.989Z,3.87
2022-12-07T01:14:45.901Z,3.94
2022-12-07T01:15:45.815Z,3.87
2022-12-07T01:16:45.770Z,3.93
2022-12-07T01:17:45.647Z,3.86
2022-12-07T01:18:45.562Z,3.83
2022-12-07T01:19:45.479Z,3.84
2022-12-07T01:20:45.402Z,3.82
2022-12-07T01:21:45.308Z,3.83
2022-12-07T01:22:45.224Z,3.82
2022-12-07T01:23:45.142Z,3.71
2022-12-07T01:24:45.055Z,3.80
2022-12-07T01:25:44.975Z,3.79
2022-12-07T01:26:44.882Z,3.80
2022-12-07T01:27:44.797Z,3.75
2022-12-07T01:28:44.711Z,3.75
2022-12-07T01:29:44.628Z,3.80
2022-12-07T01:30:44.598Z,3.79
2022-12-07T01:31:44.454Z,3.75
2022-12-07T01:32:44.372Z,3.74
2022-12-07T01:33:44.287Z,3.75
2022-12-07T01:34:44.201Z,3.84
2022-12-07T01:35:44.120Z,3.82
2022-12-07T01:36:44.029Z,3.82
2022-12-07T01:37:43.946Z,3.74
2022-12-07T01:38:43.857Z,3.74
2022-12-07T01:39:43.778Z,3.75
2022-12-07T01:40:43.687Z,3.79
2022-12-07T01:41:43.611Z,3.77
2022-12-07T01:42:43.519Z,3.84
2022-12-07T01:43:43.437Z,3.82
2022-12-07T01:44:43.346Z,3.77
2022-12-07T01:45:43.326Z,3.75
2022-12-07T01:46:43.180Z,3.80
2022-12-07T01:47:43.096Z,3.79
2022-12-07T01:48:43.009Z,3.74
2022-12-07T01:49:42.930Z,3.82
2022-12-07T01:50:42.839Z,3.79
2022-12-07T01:51:42.757Z,3.74
2022-12-07T01:52:42.667Z,3.82
2022-12-07T01:53:42.582Z,3.82
2022-12-07T01:54:42.503Z,3.74
2022-12-07T01:55:42.414Z,3.75
2022-12-07T01:56:42.333Z,3.79
2022-12-07T01:57:42.248Z,3.72
2022-12-07T01:58:42.164Z,3.77
2022-12-07T01:59:42.073Z,3.74
2022-12-07T02:00:41.988Z,3.79
2022-12-07T02:01:41.998Z,3.74
2022-12-07T02:02:41.879Z,3.72
2022-12-07T02:03:41.737Z,3.72
2022-12-07T02:04:41.644Z,3.72
2022-12-07T02:05:41.567Z,3.75
2022-12-07T02:06:41.473Z,3.79
2022-12-07T02:07:41.420Z,3.80
2022-12-07T02:08:41.310Z,3.82
2022-12-07T02:09:41.226Z,3.75
2022-12-07T02:10:41.142Z,3.79
2022-12-07T02:11:41.050Z,3.69
2022-12-07T02:12:40.971Z,3.77
2022-12-07T02:13:40.890Z,3.69
2022-12-07T02:14:40.798Z,3.75
2022-12-07T02:15:40.735Z,3.77
2022-12-07T02:16:40.624Z,3.74
2022-12-07T02:17:40.541Z,3.74
2022-12-07T02:18:40.456Z,3.72
2022-12-07T02:19:40.373Z,3.75
2022-12-07T02:20:40.283Z,3.79
2022-12-07T02:21:40.206Z,3.82
2022-12-07T02:22:40.112Z,3.75
2022-12-07T02:23:40.028Z,3.74
2022-12-07T02:24:39.947Z,3.72
2022-12-07T02:25:39.862Z,3.79
2022-12-07T02:26:39.774Z,3.74
2022-12-07T02:27:39.691Z,3.72
2022-12-07T02:28:39.606Z,3.79
2022-12-07T02:29:39.520Z,3.74
2022-12-07T02:30:39.482Z,3.74
2022-12-07T02:31:39.356Z,3.77
2022-12-07T02:32:39.266Z,3.74
2022-12-07T02:33:39.177Z,3.80
2022-12-07T02:34:39.094Z,3.66
2022-12-07T02:35:39.011Z,3.65
2022-12-07T02:36:38.922Z,3.65
2022-12-07T02:37:38.841Z,3.66
2022-12-07T02:38:38.754Z,3.74
2022-12-07T02:39:38.665Z,3.64
2022-12-07T02:40:38.584Z,3.66
2022-12-07T02:41:38.496Z,3.75
2022-12-07T02:42:38.423Z,3.66
2022-12-07T02:43:38.325Z,3.74
2022-12-07T02:44:38.240Z,3.74
2022-12-07T02:45:38.164Z,3.74
2022-12-07T02:46:38.100Z,3.74
2022-12-07T02:47:37.987Z,3.66
2022-12-07T02:48:37.900Z,3.74
2022-12-07T02:49:37.850Z,3.69
2022-12-07T02:50:37.730Z,3.74
2022-12-07T02:51:37.648Z,3.66
2022-12-07T02:52:37.563Z,3.79
2022-12-07T02:53:37.478Z,3.69
2022-12-07T02:54:37.397Z,3.61
2022-12-07T02:55:37.308Z,3.71
2022-12-07T02:56:37.221Z,3.75
2022-12-07T02:57:37.137Z,3.77
2022-12-07T02:58:37.052Z,3.75
2022-12-07T02:59:36.970Z,3.71
2022-12-07T03:00:36.882Z,3.64
2022-12-07T03:01:36.826Z,3.68
2022-12-07T03:02:36.726Z,3.64
2022-12-07T03:03:36.625Z,3.68
2022-12-07T03:04:36.536Z,3.69
2022-12-07T03:05:36.456Z,3.64
2022-12-07T03:06:36.369Z,3.69
2022-12-07T03:07:36.317Z,3.74
2022-12-07T03:08:36.201Z,3.65
2022-12-07T03:09:36.116Z,3.69
2022-12-07T03:10:36.027Z,3.75
2022-12-07T03:11:35.946Z,3.64
2022-12-07T03:12:35.861Z,3.64
2022-12-07T03:13:35.779Z,3.64
2022-12-07T03:14:35.697Z,3.64
2022-12-07T03:15:35.644Z,3.72
2022-12-07T03:16:35.516Z,3.71
2022-12-07T03:17:35.434Z,3.64
2022-12-07T03:18:35.348Z,3.71
2022-12-07T03:19:35.261Z,3.74
2022-12-07T03:20:35.177Z,3.74
2022-12-07T03:21:35.094Z,3.75
2022-12-07T03:22:35.006Z,3.74
2022-12-07T03:23:34.921Z,3.69
2022-12-07T03:24:34.840Z,3.74
2022-12-07T03:25:34.753Z,3.61
2022-12-07T03:26:34.669Z,3.56
2022-12-07T03:27:34.588Z,3.64
2022-12-07T03:28:34.492Z,3.54
2022-12-07T03:29:34.409Z,3.50
2022-12-07T03:30:34.331Z,3.43
2022-12-07T03:31:34.303Z,3.34
2022-12-07T03:32:34.152Z,3.32
2022-12-07T03:33:34.072Z,3.25
2022-12-07T03:34:33.985Z,3.27
2022-12-07T03:35:33.910Z,3.16
2022-12-07T03:36:33.815Z,3.07
2022-12-07T03:37:33.730Z,3.10
2022-12-07T03:38:33.644Z,3.13
2022-12-07T03:39:33.556Z,3.13
2022-12-07T03:40:33.476Z,3.10
2022-12-07T03:41:33.403Z,3.14
2022-12-07T03:42:33.300Z,3.14
2022-12-07T03:43:33.229Z,3.17
2022-12-07T03:44:33.144Z,3.10
2022-12-07T03:45:33.047Z,3.03
2022-12-07T03:46:33.044Z,3.03
2022-12-07T03:47:32.877Z,2.99
2022-12-07T03:48:32.793Z,3.09
2022-12-07T03:49:32.704Z,3.17
2022-12-07T03:50:32.617Z,3.01
2022-12-07T03:51:32.533Z,3.17
2022-12-07T03:52:32.451Z,3.16
2022-12-07T03:53:32.367Z,3.09
2022-12-07T03:54:32.277Z,3.07
2022-12-07T03:55:32.197Z,3.03
2022-12-07T03:56:32.105Z,3.01
2022-12-07T03:57:32.025Z,2.99
2022-12-07T03:58:31.943Z,2.99
2022-12-07T03:59:31.851Z,3.01
2022-12-07T04:00:31.766Z,2.99
2022-12-07T04:01:31.732Z,3.09
2022-12-07T04:02:31.647Z,2.98
2022-12-07T04:03:31.512Z,3.06
2022-12-07T04:04:31.426Z,3.03
2022-12-07T04:05:31.344Z,3.03
2022-12-07T04:06:31.252Z,3.04
2022-12-07T04:07:31.178Z,3.03
2022-12-07T04:08:31.085Z,2.99
2022-12-07T04:09:31.003Z,3.07
2022-12-07T04:10:30.916Z,2.98
2022-12-07T04:11:30.831Z,2.96
2022-12-07T04:12:30.744Z,3.10
2022-12-07T04:13:30.661Z,3.01
2022-12-07T04:14:30.573Z,3.14
2022-12-07T04:15:30.488Z,2.98
2022-12-07T04:16:30.465Z,2.99
2022-12-07T04:17:30.321Z,3.01
2022-12-07T04:18:30.238Z,2.99
2022-12-07T04:19:30.147Z,3.01
2022-12-07T04:20:30.062Z,3.01
2022-12-07T04:21:29.981Z,2.91
2022-12-07T04:22:29.890Z,2.99
2022-12-07T04:23:29.808Z,2.93
2022-12-07T04:24:29.721Z,2.93
2022-12-07T04:25:29.633Z,2.96
2022-12-07T04:26:29.557Z,2.98
2022-12-07T04:27:29.469Z,2.96
2022-12-07T04:28:29.379Z,2.88
2022-12-07T04:29:29.297Z,2.89
2022-12-07T04:30:29.208Z,2.88
2022-12-07T04:31:29.247Z,2.78
2022-12-07T04:32:29.039Z,2.81
2022-12-07T04:33:28.954Z,2.80
2022-12-07T04:34:28.865Z,2.81
2022-12-07T04:35:28.783Z,2.85
2022-12-07T04:36:28.695Z,2.74
2022-12-07T04:37:28.609Z,2.81
2022-12-07T04:38:28.528Z,2.80
2022-12-07T04:39:28.439Z,2.78
2022-12-07T04:40:28.352Z,2.75
2022-12-07T04:41:28.269Z,2.74
2022-12-07T04:42:28.180Z,2.77
2022-12-07T04:43:28.097Z,2.71
2022-12-07T04:44:28.011Z,2.75
2022-12-07T04:45:27.924Z,2.74
2022-12-07T04:46:27.884Z,2.73
2022-12-07T04:47:27.756Z,2.81
2022-12-07T04:48:27.674Z,2.74
2022-12-07T04:49:27.586Z,2.81
2022-12-07T04:50:27.502Z,2.73
2022-12-07T04:51:27.415Z,2.75
2022-12-07T04:52:27.323Z,2.77
2022-12-07T04:53:27.243Z,2.77
2022-12-07T04:54:27.151Z,2.70
2022-12-07T04:55:27.074Z,2.77
2022-12-07T04:56:26.983Z,2.67
2022-12-07T04:57:26.899Z,2.68
2022-12-07T04:58:26.809Z,2.67
2022-12-07T04:59:26.727Z,2.67
2022-12-07T05:00:26.694Z,2.77
2022-12-07T05:01:26.558Z,2.84
2022-12-07T05:02:26.570Z,2.71
2022-12-07T05:03:26.384Z,2.77
2022-12-07T05:04:26.298Z,2.75
2022-12-07T05:05:26.211Z,2.75
2022-12-07T05:06:26.134Z,2.78
2022-12-07T05:07:26.041Z,2.81
2022-12-07T05:08:25.953Z,2.80
2022-12-07T05:09:25.869Z,2.73
2022-12-07T05:10:25.787Z,2.81
2022-12-07T05:11:25.703Z,2.77
2022-12-07T05:12:25.615Z,2.75
2022-12-07T05:13:25.535Z,2.70
2022-12-07T05:14:25.442Z,2.74
2022-12-07T05:15:25.358Z,2.67
2022-12-07T05:16:25.334Z,2.73
2022-12-07T05:17:25.186Z,2.75
2022-12-07T05:18:25.113Z,2.85
2022-12-07T05:19:25.016Z,2.73
2022-12-07T05:20:24.933Z,2.84
2022-12-07T05:21:24.845Z,2.81
2022-12-07T05:22:24.762Z,2.77
2022-12-07T05:23:24.679Z,2.78
2022-12-07T05:24:24.586Z,2.84
2022-12-07T05:25:24.548Z,2.77
2022-12-07T05:26:24.420Z,2.81
2022-12-07T05:27:24.328Z,2.74
2022-12-07T05:28:24.247Z,2.77
2022-12-07T05:29:24.164Z,2.77
2022-12-07T05:30:24.070Z,2.84
2022-12-07T05:31:24.069Z,2.66
2022-12-07T05:32:23.904Z,2.75
2022-12-07T05:33:23.816Z,2.66
2022-12-07T05:34:23.730Z,2.77
2022-12-07T05:35:23.644Z,2.75
2022-12-07T05:36:23.567Z,2.68
2022-12-07T05:37:23.477Z,2.80
2022-12-07T05:38:23.389Z,2.85
2022-12-07T05:39:23.301Z,2.81
2022-12-07T05:40:23.216Z,2.81
2022-12-07T05:41:23.132Z,2.81
2022-12-07T05:42:23.046Z,2.78
2022-12-07T05:43:22.959Z,2.80
2022-12-07T05:44:22.875Z,2.78
2022-12-07T05:45:22.797Z,2.75
2022-12-07T05:46:22.795Z,2.85
2022-12-07T05:47:22.613Z,2.78
2022-12-07T05:48:22.529Z,2.81
2022-12-07T05:49:22.446Z,2.78
2022-12-07T05:50:22.357Z,2.84
2022-12-07T05:51:22.269Z,2.81
2022-12-07T05:52:22.189Z,2.78
2022-12-07T05:53:23.424Z,2.81
2022-12-07T05:54:22.016Z,2.84
2022-12-07T05:55:21.930Z,2.74
2022-12-07T05:56:21.846Z,2.81
2022-12-07T05:57:21.760Z,2.74
2022-12-07T05:58:21.673Z,2.80
2022-12-07T05:59:21.586Z,2.73
2022-12-07T06:00:21.504Z,2.89
2022-12-07T06:01:21.414Z,2.85
2022-12-07T06:02:21.472Z,2.85
2022-12-07T06:03:21.447Z,2.91
2022-12-07T06:04:21.158Z,2.88
2022-12-07T06:05:21.070Z,2.89
2022-12-07T06:06:21.105Z,2.81
2022-12-07T06:07:20.899Z,2.89
2022-12-07T06:08:20.938Z,2.85
2022-12-07T06:09:20.735Z,2.84
2022-12-07T06:10:20.650Z,2.86
2022-12-07T06:11:20.557Z,2.89
2022-12-07T06:12:20.470Z,2.88
2022-12-07T06:13:20.389Z,2.85
2022-12-07T06:14:20.301Z,2.86
2022-12-07T06:15:20.211Z,2.88
2022-12-07T06:16:20.151Z,2.86
2022-12-07T06:17:20.046Z,2.78
2022-12-07T06:18:19.956Z,2.81
2022-12-07T06:19:19.869Z,2.86
2022-12-07T06:20:19.789Z,2.98
2022-12-07T06:21:19.698Z,2.96
2022-12-07T06:22:19.615Z,2.92
2022-12-07T06:23:19.533Z,2.92
2022-12-07T06:24:19.443Z,2.96
2022-12-07T06:25:19.358Z,2.92
2022-12-07T06:26:19.273Z,3.01
2022-12-07T06:27:19.186Z,2.96
2022-12-07T06:28:19.101Z,2.88
2022-12-07T06:29:19.014Z,2.88
2022-12-07T06:30:18.933Z,2.95
2022-12-07T06:31:18.929Z,2.88
2022-12-07T06:32:18.836Z,2.85
2022-12-07T06:33:18.674Z,2.86
2022-12-07T06:34:18.587Z,2.91
2022-12-07T06:35:18.501Z,2.86
2022-12-07T06:36:21.437Z,2.88
2022-12-07T06:37:18.332Z,2.86
2022-12-07T06:38:18.241Z,2.88
2022-12-07T06:39:18.161Z,2.86
2022-12-07T06:40:18.076Z,2.86
2022-12-07T06:41:17.986Z,2.89
2022-12-07T06:42:17.904Z,2.93
2022-12-07T06:43:17.812Z,2.96
2022-12-07T06:44:17.732Z,2.92
2022-12-07T06:45:17.644Z,2.98
2022-12-07T06:46:17.584Z,2.95
2022-12-07T06:47:46.943Z,2.98
2022-12-07T06:48:17.385Z,2.99
2022-12-07T06:49:17.301Z,2.98
2022-12-07T06:50:17.215Z,2.99
2022-12-07T06:51:17.125Z,2.96
2022-12-07T06:52:17.043Z,2.98
2022-12-07T06:53:16.956Z,2.99
2022-12-07T06:54:16.878Z,2.93
2022-12-07T06:55:16.788Z,3.04
2022-12-07T06:56:16.700Z,2.95
2022-12-07T06:57:16.614Z,3.06
2022-12-07T06:58:16.535Z,2.96
2022-12-07T06:59:16.444Z,3.04
2022-12-07T07:00:21.819Z,2.99
2022-12-07T07:01:16.320Z,2.96
2022-12-07T07:02:16.266Z,2.99
2022-12-07T07:03:16.110Z,3.01
2022-12-07T07:04:16.018Z,2.99
2022-12-07T07:05:15.932Z,3.09
2022-12-07T07:06:15.843Z,2.95
2022-12-07T07:07:15.761Z,2.96
2022-12-07T07:08:23.600Z,3.03
2022-12-07T07:09:15.662Z,3.10
2022-12-07T07:10:15.503Z,3.09
2022-12-07T07:11:15.412Z,2.96
2022-12-07T07:12:15.336Z,3.03
2022-12-07T07:13:15.245Z,3.01
2022-12-07T07:14:15.166Z,2.98
2022-12-07T07:15:15.073Z,2.98
2022-12-07T07:16:15.029Z,3.01
2022-12-07T07:17:14.901Z,3.07
2022-12-07T07:18:14.818Z,3.03
2022-12-07T07:19:14.733Z,3.06
2022-12-07T07:20:14.642Z,3.09
2022-12-07T07:21:14.559Z,3.04
2022-12-07T07:22:14.475Z,3.03
2022-12-07T07:23:14.388Z,3.06
2022-12-07T07:24:14.303Z,3.09
2022-12-07T07:25:14.215Z,3.09
2022-12-07T07:26:17.411Z,3.04
2022-12-07T07:27:14.043Z,3.13
2022-12-07T07:28:13.962Z,3.13
2022-12-07T07:29:13.874Z,3.16
2022-12-07T07:30:13.787Z,3.16
2022-12-07T07:31:13.846Z,3.16
2022-12-07T07:32:13.617Z,3.28
2022-12-07T07:33:13.531Z,3.25
2022-12-07T07:34:13.448Z,3.24
2022-12-07T07:35:13.362Z,3.28
2022-12-07T07:36:13.275Z,3.11
2022-12-07T07:37:17.324Z,3.16
2022-12-07T07:38:13.110Z,3.29
2022-12-07T07:39:13.015Z,3.16
2022-12-07T07:40:12.932Z,3.19
2022-12-07T07:41:12.847Z,3.10
2022-12-07T07:42:12.761Z,3.27
2022-12-07T07:43:12.675Z,3.21
2022-12-07T07:44:12.588Z,3.22
2022-12-07T07:45:12.505Z,3.16
2022-12-07T07:46:12.509Z,3.22
2022-12-07T07:47:12.334Z,3.16
2022-12-07T07:48:12.251Z,3.24
2022-12-07T07:49:12.164Z,3.13
2022-12-07T07:50:12.080Z,3.14
2022-12-07T07:51:11.989Z,3.14
2022-12-07T07:52:11.909Z,3.13
2022-12-07T07:53:11.819Z,3.22
2022-12-07T07:54:11.746Z,3.31
2022-12-07T07:55:11.651Z,3.31
2022-12-07T07:56:11.567Z,3.27
2022-12-07T07:57:11.477Z,3.27
2022-12-07T07:58:11.398Z,3.34
2022-12-07T07:59:11.303Z,3.34
2022-12-07T08:00:11.221Z,3.37
2022-12-07T08:01:11.246Z,3.32
2022-12-07T08:02:11.056Z,3.35
2022-12-07T08:03:10.972Z,3.35
2022-12-07T08:04:10.879Z,3.34
2022-12-07T08:05:10.902Z,3.46
2022-12-07T08:06:10.708Z,3.43
2022-12-07T08:07:10.623Z,3.46
2022-12-07T08:08:10.556Z,3.48
2022-12-07T08:09:10.450Z,3.34
2022-12-07T08:10:10.366Z,3.39
2022-12-07T08:11:10.287Z,3.48
2022-12-07T08:12:10.192Z,3.47
2022-12-07T08:13:10.106Z,3.47
2022-12-07T08:14:10.026Z,3.46
2022-12-07T08:15:09.939Z,3.48
2022-12-07T08:16:09.885Z,3.54
2022-12-07T08:17:09.762Z,3.54
2022-12-07T08:18:09.689Z,3.54
2022-12-07T08:19:09.594Z,3.54
2022-12-07T08:20:09.506Z,3.53
2022-12-07T08:21:09.422Z,3.64
2022-12-07T08:22:09.335Z,3.57
2022-12-07T08:23:09.248Z,3.54
2022-12-07T08:24:09.170Z,3.59
2022-12-07T08:25:09.082Z,3.59
2022-12-07T08:26:08.994Z,3.62
2022-12-07T08:27:08.911Z,3.61
2022-12-07T08:28:08.825Z,3.64
2022-12-07T08:29:08.737Z,3.64
2022-12-07T08:30:08.657Z,3.66
2022-12-07T08:31:08.645Z,3.64
2022-12-07T08:32:09.927Z,3.65
2022-12-07T08:33:08.399Z,3.66
2022-12-07T08:34:08.311Z,3.64
2022-12-07T08:35:08.228Z,3.68
2022-12-07T08:36:08.141Z,3.64
2022-12-07T08:37:08.054Z,3.72
2022-12-07T08:38:07.966Z,3.71
2022-12-07T08:39:31.057Z,3.77
2022-12-07T08:40:07.797Z,3.72
2022-12-07T08:41:07.709Z,3.72
2022-12-07T08:42:07.628Z,3.77
2022-12-07T08:43:07.544Z,3.75
2022-12-07T08:44:07.454Z,3.74
2022-12-07T08:45:07.369Z,3.75
2022-12-07T08:46:07.355Z,3.74
2022-12-07T08:47:07.199Z,3.80
2022-12-07T08:48:07.115Z,3.79
2022-12-07T08:49:07.028Z,3.77
2022-12-07T08:50:06.944Z,3.83
2022-12-07T08:51:06.861Z,3.80
2022-12-07T08:52:06.773Z,3.80
2022-12-07T08:53:06.698Z,3.83
2022-12-07T08:54:06.614Z,3.84
2022-12-07T08:55:06.530Z,3.84
2022-12-07T08:56:06.431Z,3.90
2022-12-07T08:57:06.343Z,3.90
2022-12-07T08:58:06.264Z,3.87
2022-12-07T08:59:06.174Z,3.89
2022-12-07T09:00:06.136Z,4.00
2022-12-07T09:01:06.111Z,3.89
2022-12-07T09:02:06.111Z,3.92
2022-12-07T09:03:05.832Z,3.89
2022-12-07T09:04:05.746Z,3.87
2022-12-07T09:05:05.661Z,3.93
2022-12-07T09:06:05.796Z,3.98
2022-12-07T09:07:05.549Z,4.04
2022-12-07T09:08:05.468Z,3.87
2022-12-07T09:09:05.319Z,4.02
2022-12-07T09:10:05.499Z,4.02
2022-12-07T09:11:05.151Z,4.02
2022-12-07T09:12:05.068Z,4.08
2022-12-07T09:13:04.984Z,4.15
2022-12-07T09:14:04.898Z,4.19
2022-12-07T09:15:04.837Z,4.15
2022-12-07T09:16:04.789Z,4.18
2022-12-07T09:17:04.644Z,4.10
2022-12-07T09:18:04.551Z,4.10
2022-12-07T09:19:04.467Z,4.18
2022-12-07T09:20:04.655Z,4.10
2022-12-07T09:21:04.300Z,4.18
2022-12-07T09:22:04.220Z,4.23
2022-12-07T09:23:04.126Z,4.20
2022-12-07T09:24:04.048Z,4.22
2022-12-07T09:25:03.962Z,4.23
2022-12-07T09:26:10.271Z,4.25
2022-12-07T09:27:03.788Z,4.23
2022-12-07T09:28:03.702Z,4.23
2022-12-07T09:29:03.617Z,4.28
2022-12-07T09:30:03.827Z,4.28
2022-12-07T09:31:27.623Z,4.37
2022-12-07T09:32:08.313Z,4.37
2022-12-07T09:33:03.280Z,4.36
2022-12-07T09:34:03.220Z,4.37
2022-12-07T09:35:03.106Z,4.54
2022-12-07T09:36:03.019Z,4.50
2022-12-07T09:37:02.946Z,4.44
2022-12-07T09:38:02.855Z,4.50
2022-12-07T09:39:02.768Z,4.55
2022-12-07T09:40:03.075Z,4.54
2022-12-07T09:41:02.593Z,4.54
2022-12-07T09:42:02.513Z,4.52
2022-12-07T09:43:02.481Z,4.61
2022-12-07T09:44:02.339Z,4.55
2022-12-07T09:45:02.258Z,4.56
2022-12-07T09:46:02.211Z,4.55
2022-12-07T09:47:02.087Z,4.65
2022-12-07T09:48:02.002Z,4.58
2022-12-07T09:49:01.913Z,4.65
2022-12-07T09:50:02.031Z,4.64
2022-12-07T09:51:01.748Z,4.69
2022-12-07T09:52:01.663Z,4.68
2022-12-07T09:53:01.573Z,4.62
2022-12-07T09:54:01.499Z,4.56
2022-12-07T09:55:01.796Z,4.62
2022-12-07T09:56:01.321Z,4.68
2022-12-07T09:57:01.237Z,4.69
2022-12-07T09:58:01.150Z,4.69
2022-12-07T09:59:01.063Z,4.69
2022-12-07T10:00:00.984Z,4.68
2022-12-07T10:01:00.901Z,4.68
2022-12-07T10:02:00.853Z,4.69
2022-12-07T10:03:00.731Z,4.72
2022-12-07T10:04:00.642Z,4.68
2022-12-07T10:05:01.149Z,4.58
2022-12-07T10:06:00.474Z,4.77
2022-12-07T10:07:00.385Z,4.66
2022-12-07T10:08:00.398Z,4.65
2022-12-07T10:09:00.221Z,4.65
2022-12-07T10:10:00.156Z,4.73
2022-12-07T10:11:00.051Z,4.64
2022-12-07T10:11:59.965Z,4.64
2022-12-07T10:12:59.910Z,4.56
2022-12-07T10:13:59.790Z,4.59
2022-12-07T10:15:18.644Z,4.65
2022-12-07T10:16:05.166Z,4.58
2022-12-07T10:16:59.540Z,4.59
2022-12-07T10:17:59.461Z,4.61
2022-12-07T10:18:59.367Z,4.58
2022-12-07T10:19:59.280Z,4.58
2022-12-07T10:20:59.199Z,4.58
2022-12-07T10:21:59.110Z,4.54
2022-12-07T10:22:59.032Z,4.56
2022-12-07T10:23:58.944Z,4.52
2022-12-07T10:24:58.860Z,4.48
2022-12-07T10:25:58.776Z,4.48
2022-12-07T10:26:58.687Z,4.46
2022-12-07T10:27:58.606Z,4.46
2022-12-07T10:28:58.525Z,4.44
2022-12-07T10:29:58.435Z,4.44
2022-12-07T10:30:58.442Z,4.48
2022-12-07T10:31:58.264Z,4.48
2022-12-07T10:32:58.182Z,4.46
2022-12-07T10:33:58.093Z,4.46
2022-12-07T10:34:58.014Z,4.44
2022-12-07T10:35:57.929Z,4.52
2022-12-07T10:36:57.843Z,4.48
2022-12-07T10:37:57.758Z,4.47
2022-12-07T10:38:57.670Z,4.54
2022-12-07T10:39:57.601Z,4.46
2022-12-07T10:40:57.506Z,4.48
2022-12-07T10:41:57.418Z,4.48
2022-12-07T10:42:57.333Z,4.50
2022-12-07T10:43:57.249Z,4.55
2022-12-07T10:44:57.277Z,4.65
2022-12-07T10:46:05.529Z,4.56
2022-12-07T10:46:57.031Z,4.56
2022-12-07T10:47:56.911Z,4.64
2022-12-07T10:48:56.827Z,4.65
2022-12-07T10:49:56.737Z,4.68
2022-12-07T10:50:56.657Z,4.68
2022-12-07T10:51:56.572Z,4.65
2022-12-07T10:52:56.488Z,4.74
2022-12-07T10:53:56.394Z,4.68
2022-12-07T10:54:56.314Z,4.69
2022-12-07T10:55:56.230Z,4.62
2022-12-07T10:56:56.149Z,4.62
2022-12-07T10:57:56.060Z,4.65
2022-12-07T10:58:55.972Z,4.69
2022-12-07T10:59:55.889Z,4.65
2022-12-07T11:00:55.828Z,4.64
2022-12-07T11:01:55.744Z,4.69
2022-12-07T11:02:55.636Z,4.62
2022-12-07T11:03:55.553Z,4.73
2022-12-07T11:04:55.464Z,4.66
2022-12-07T11:05:55.379Z,4.68
2022-12-07T11:06:55.298Z,4.64
2022-12-07T11:07:56.977Z,4.74
2022-12-07T11:08:55.131Z,4.76
2022-12-07T11:10:19.247Z,4.69
2022-12-07T11:10:54.957Z,4.73
2022-12-07T11:11:54.871Z,4.66
2022-12-07T11:12:54.789Z,4.77
2022-12-07T11:13:54.703Z,4.69
2022-12-07T11:14:54.619Z,4.77
2022-12-07T11:15:54.568Z,4.73
2022-12-07T11:16:54.450Z,4.73
2022-12-07T11:17:54.365Z,4.85
2022-12-07T11:18:54.277Z,4.80
2022-12-07T11:19:54.198Z,4.84
2022-12-07T11:20:54.111Z,4.79
2022-12-07T11:21:54.022Z,4.84
2022-12-07T11:22:53.938Z,4.83
2022-12-07T11:23:53.855Z,4.77
2022-12-07T11:24:53.769Z,4.84
2022-12-07T11:25:53.683Z,4.83
2022-12-07T11:26:53.602Z,4.79
2022-12-07T11:27:53.515Z,4.95
2022-12-07T11:28:53.429Z,4.92
2022-12-07T11:29:53.344Z,4.91
2022-12-07T11:30:53.267Z,4.87
2022-12-07T11:31:53.218Z,4.88
2022-12-07T11:32:53.096Z,4.98
2022-12-07T11:33:53.009Z,4.88
2022-12-07T11:34:52.933Z,5.00
2022-12-07T11:35:52.842Z,4.99
2022-12-07T11:36:52.753Z,5.02
2022-12-07T11:37:52.670Z,5.06
2022-12-07T11:38:52.585Z,5.10
2022-12-07T11:39:52.502Z,5.06
2022-12-07T11:40:52.418Z,5.06
2022-12-07T11:41:52.331Z,5.06
2022-12-07T11:42:52.248Z,5.08
2022-12-07T11:43:52.160Z,5.08
2022-12-07T11:44:52.079Z,5.10
2022-12-07T11:45:51.997Z,5.10
2022-12-07T11:46:52.042Z,5.13
2022-12-07T11:47:51.822Z,5.14
2022-12-07T11:48:51.749Z,5.13
2022-12-07T11:49:51.651Z,5.08
2022-12-07T11:50:51.569Z,5.08
2022-12-07T11:51:51.487Z,5.17
2022-12-07T11:52:51.406Z,5.16
2022-12-07T11:53:51.316Z,5.21
2022-12-07T11:54:51.232Z,5.18
2022-12-07T11:55:51.151Z,5.23
2022-12-07T11:56:51.064Z,5.32
2022-12-07T11:57:50.977Z,5.34
2022-12-07T11:58:50.895Z,5.29
2022-12-07T11:59:50.806Z,5.31
2022-12-07T12:00:50.729Z,5.31
2022-12-07T12:01:50.700Z,5.29
2022-12-07T12:02:50.632Z,5.28
2022-12-07T12:03:53.228Z,5.31
2022-12-07T12:04:50.394Z,5.32
2022-12-07T12:05:50.305Z,5.29
2022-12-07T12:06:50.229Z,5.42
2022-12-07T12:09:53.378Z,5.34
2022-12-07T12:10:49.879Z,5.44
2022-12-07T12:11:49.817Z,5.35
2022-12-07T12:14:49.547Z,5.35
2022-12-07T12:15:49.457Z,5.44
2022-12-07T12:16:49.433Z,5.42
2022-12-07T12:17:49.291Z,5.41
2022-12-07T12:18:49.204Z,5.39
2022-12-07T12:19:49.121Z,5.34
2022-12-07T12:20:49.048Z,5.41
2022-12-07T12:21:50.367Z,5.38
2022-12-07T12:22:48.869Z,5.44
2022-12-07T12:23:48.786Z,5.34
2022-12-07T12:24:48.718Z,5.34
2022-12-07T12:25:48.681Z,5.39
2022-12-07T12:26:48.539Z,5.28
2022-12-07T12:27:48.445Z,5.34
2022-12-07T12:28:50.342Z,5.28
2022-12-07T12:29:48.278Z,5.31
2022-12-07T12:30:48.196Z,5.29
2022-12-07T12:31:48.131Z,5.32
2022-12-07T12:32:48.029Z,5.34
2022-12-07T12:33:48.023Z,5.32
2022-12-07T12:34:50.720Z,5.31
2022-12-07T12:35:47.770Z,5.35
2022-12-07T12:36:47.742Z,5.28
2022-12-07T12:37:47.601Z,5.26
2022-12-07T12:38:47.520Z,5.24
2022-12-07T12:39:47.431Z,5.18
2022-12-07T12:40:50.996Z,5.17
2022-12-07T12:41:47.269Z,5.14
2022-12-07T12:42:47.182Z,5.35
2022-12-07T12:43:47.128Z,5.21
2022-12-07T12:44:47.014Z,5.29
2022-12-07T12:45:47.025Z,5.31
2022-12-07T12:46:49.974Z,5.28
2022-12-07T12:47:46.762Z,5.35
2022-12-07T12:48:46.680Z,5.42
2022-12-07T12:49:46.591Z,5.34
2022-12-07T12:50:46.513Z,5.36
2022-12-07T12:51:46.424Z,5.39
2022-12-07T12:52:50.368Z,5.34
2022-12-07T12:53:46.252Z,5.35
2022-12-07T12:54:46.170Z,5.42
2022-12-07T12:55:46.085Z,5.36
2022-12-07T12:56:45.998Z,5.35
2022-12-07T12:57:45.913Z,5.26
2022-12-07T12:58:45.835Z,5.28
2022-12-07T12:59:45.746Z,5.31
2022-12-07T13:00:45.678Z,5.29
2022-12-07T13:01:45.753Z,5.14
2022-12-07T13:02:45.538Z,5.26
2022-12-07T13:03:45.408Z,5.21
2022-12-07T13:04:45.326Z,5.23
2022-12-07T13:05:45.245Z,5.26
2022-12-07T13:06:45.155Z,5.14
2022-12-07T13:07:45.137Z,5.23
2022-12-07T13:08:44.991Z,5.14
2022-12-07T13:09:44.904Z,5.21
2022-12-07T13:10:44.823Z,5.18
2022-12-07T13:11:44.731Z,5.21
2022-12-07T13:12:44.648Z,5.17
2022-12-07T13:13:44.564Z,5.21
2022-12-07T13:14:44.486Z,5.11
2022-12-07T13:15:44.413Z,5.20
2022-12-07T13:16:44.390Z,5.16
2022-12-07T13:17:44.226Z,5.20
2022-12-07T13:18:44.143Z,5.16
2022-12-07T13:19:44.065Z,5.17
2022-12-07T13:20:43.974Z,5.14
2022-12-07T13:21:43.898Z,5.21